• Join FlightAware (Why Join?)
  • Login
  • US Flag 
04:38PM EDT


 

Airport Tracker/Info


-or-


 

Live Flight TrackerFlight Track Log ✈ DAL6231 ✈ 23-Apr-2013 ✈ KLGA - CYHZ

Flight Track Log - Related Links

Times and Time Zones

All times are in EDT time to prevent confusion due to time zone crossing. See the DAL6231 flight status page for this flight to view local times or setup timezone preferences in your user account.

Time Position Orientation Groundspeed Altitude Reporting Facility
EDT Latitude Longitude Course Direction KTS MPH feet Rate Location/Type
09:37PM 40.7500 -73.8333 131° Southeast 176 203 1,500  Level New York TRACON
09:38PM 40.7167 -73.7833 131° Southeast 218 251 4,000 1,920 Climbing New York TRACON
09:40PM 40.8197 -73.7044 30° Northeast 249 287 7,000 1,920 Climbing Boston Center
09:41PM 40.8808 -73.6508 34° Northeast 259 298 9,600 2,340 Climbing Boston Center
09:42PM 40.9442 -73.5858 38° Northeast 270 311 11,800 1,980 Climbing Boston Center
09:43PM 41.0242 -73.5047 37° Northeast 309 356 13,700 1,800 Climbing Boston Center
09:44PM 41.0914 -73.4344 38° Northeast 341 392 15,400 1,860 Climbing Boston Center
09:45PM 41.1817 -73.3447 37° Northeast 354 407 17,500 1,800 Climbing Boston Center
09:46PM 41.2636 -73.2631 37° Northeast 359 413 19,100 1,560 Climbing Boston Center
09:47PM 41.3392 -73.1867 37° Northeast 366 421 20,700 1,560 Climbing Boston Center
09:48PM 41.4108 -73.0794 48° Northeast 366 421 22,200 1,440 Climbing Boston Center
09:49PM 41.4678 -72.9525 59° Northeast 382 440 23,600 1,200 Climbing Boston Center
09:50PM 41.5244 -72.8228 60° Northeast 388 447 24,600 1,080 Climbing Boston Center
09:51PM 41.5997 -72.7039 50° Northeast 407 468 25,800 1,080 Climbing Boston Center
09:52PM 41.6792 -72.5819 49° Northeast 420 483 26,800 960 Climbing Boston Center
09:53PM 41.7606 -72.4567 49° Northeast 431 496 27,800 960 Climbing Boston Center
09:54PM 41.8439 -72.3286 49° Northeast 437 503 28,800 960 Climbing Boston Center
09:55PM 41.9292 -72.1972 49° Northeast 451 519 29,800 1,020 Climbing Boston Center
09:56PM 42.0122 -72.0656 50° Northeast 456 525 30,900 900 Climbing Boston Center
09:57PM 42.0969 -71.9336 49° Northeast 456 525 31,700 780 Climbing Boston Center
09:58PM 42.1819 -71.7958 50° Northeast 466 536 32,500 780 Climbing Boston Center
09:59PM 42.2706 -71.6631 48° Northeast 471 542 33,300 780 Climbing Boston Center
10:00PM 42.3592 -71.5269 49° Northeast 471 542 34,100 600 Climbing Boston Center
10:01PM 42.4475 -71.3878 49° Northeast 471 542 34,600 600 Climbing Boston Center
10:02PM 42.5339 -71.2483 50° Northeast 477 549 35,300 600 Climbing Boston Center
10:03PM 42.6239 -71.1028 50° Northeast 483 556 35,900 300 Climbing Boston Center
10:04PM 42.7139 -70.9567 50° Northeast 488 562 36,000  Climbing Boston Center
10:05PM 42.8056 -70.8044 51° Northeast 501 577 36,000  Level Boston Center
10:06PM 42.9011 -70.6486 50° Northeast 517 595 36,000  Level Boston Center
10:07PM 42.9964 -70.4869 51° Northeast 528 608 36,000  Level Boston Center
10:08PM 43.0894 -70.3361 50° Northeast 534 615 36,000  Level Boston Center
10:09PM 43.1806 -70.1850 50° Northeast 528 608 36,000  Level Boston Center
10:10PM 43.2769 -70.0161 52° Northeast 522 601 36,000  Level Boston Center
10:11PM 43.3675 -69.8639 51° Northeast 522 601 36,000  Level Boston Center
10:12PM 43.4619 -69.7053 51° Northeast 522 601 36,000  Level Boston Center
10:13PM 43.5558 -69.5492 50° Northeast 522 601 36,000  Level Boston Center
10:14PM 43.6478 -69.3897 51° Northeast 528 608 36,000  Level Boston Center
10:15PM 43.7414 -69.2328 50° Northeast 533 613 36,000  Level Boston Center
10:16PM 43.8147 -69.1022 52° Northeast 528 608 36,000  Level Boston Center
10:17PM 43.9256 -68.9056 52° Northeast 533 613 36,000  Level Boston Center
10:18PM 44.0228 -68.7439 50° Northeast 533 613 36,000  Level Boston Center
10:19PM 44.1131 -68.5794 53° Northeast 533 613 36,000  Level Boston Center
10:20PM 44.1958 -68.4350 51° Northeast 533 613 36,000  Level Boston Center
10:21PM 44.2900 -68.2689 52° Northeast 533 613 36,000  Level Boston Center
10:22PM 44.3839 -68.1025 52° Northeast 533 613 36,000  Level Boston Center
10:23PM 44.4775 -67.9356 52° Northeast 533 613 36,000  Level Boston Center
10:24PM 44.5500 -67.7833 56° Northeast 540 621 36,000  Level Moncton Center
10:25PM 44.6333 -67.6167 55° Northeast 550 633 36,000  Level Moncton Center
10:26PM 44.7333 -67.4333 52° Northeast 540 621 36,000  Level Moncton Center
10:26PM 44.7547 -67.4286 North 543 625 36,000  Level Boston Center
10:27PM 44.8167 -67.2667 62° Northeast 550 633 36,000  Level Moncton Center
10:28PM 44.8667 -67.0667 71° East 540 621 36,000  Level Moncton Center
10:29PM 44.9000 -66.8833 76° East 520 598 36,000  Level Moncton Center
10:30PM 44.9000 -66.6833 90° East 520 598 36,000 -720 Level Moncton Center
10:31PM 44.9000 -66.4667 90° East 520 598 34,600 -1,680 Descending Moncton Center
10:32PM 44.9000 -66.2667 90° East 510 587 32,700 -2,040 Descending Moncton Center
10:33PM 44.9167 -66.0667 83° East 500 575 30,600 -2,100 Descending Moncton Center
10:34PM 44.9167 -65.8833 90° East 490 564 28,600 -2,100 Descending Moncton Center
10:35PM 44.9167 -65.6667 90° East 490 564 26,500 -2,100 Descending Moncton Center
10:36PM 44.9167 -65.5000 90° East 480 552 24,500 -1,980 Descending Moncton Center
10:37PM 44.9167 -65.3167 90° East 460 529 22,600 -2,040 Descending Moncton Center
10:38PM 44.9167 -65.1500 90° East 440 506 20,500 -2,100 Descending Moncton Center
10:39PM 44.9167 -64.9833 90° East 420 483 18,500 -1,800 Descending Moncton Center
10:40PM 44.9167 -64.8167 90° East 410 472 17,000 -1,800 Descending Moncton Center
10:41PM 44.9333 -64.6833 80° East 390 449 14,900 -2,040 Descending Moncton Center
10:42PM 44.9333 -64.5167 90° East 390 449 13,000 -1,980 Descending Moncton Center
10:43PM 44.9500 -64.3667 81° East 380 437 11,000 -1,560 Descending Moncton Center
10:44PM 44.9500 -64.2333 90° East 360 414 9,900 -1,140 Descending Moncton Center
10:45PM 44.9667 -64.1167 79° East 310 357 8,800 -1,560 Descending Moncton Center
10:46PM 44.9667 -64.0000 90° East 300 345 6,800 -1,860 Descending Moncton Center
10:47PM 44.9833 -63.9000 77° East 270 311 5,100 -1,740 Descending Moncton Center
10:48PM 44.9833 -63.8000 90° East 240 276 3,400 -1,260 Descending Moncton Center
10:49PM 44.9833 -63.7333 90° East 200 230 2,600 -600 Descending Moncton Center
10:50PM 44.9667 -63.6667 109° East 160 184 2,200 -240 Descending Moncton Center
10:51PM 44.9333 -63.6167 133° Southeast 160 184 2,200 -360 Level Moncton Center
10:52PM 44.9167 -63.5667 115° Southeast 160 184 1,500 -780 Descending Moncton Center
10:53PM 44.8833 -63.5167 133° Southeast 170 196 700 -840 Descending Moncton Center